createdAt,value
2018-03-04T00:00:37.675Z,987.67
2018-03-04T00:01:38.267Z,987.64
2018-03-04T00:02:38.867Z,987.71
2018-03-04T00:03:39.467Z,987.67
2018-03-04T00:04:40.074Z,987.67
2018-03-04T00:05:40.676Z,987.69
2018-03-04T00:06:41.317Z,987.67
2018-03-04T00:07:41.906Z,987.68
2018-03-04T00:08:42.505Z,987.70
2018-03-04T00:09:43.104Z,987.71
2018-03-04T00:10:43.701Z,987.66
2018-03-04T00:11:44.288Z,987.72
2018-03-04T00:12:44.885Z,987.71
2018-03-04T00:13:45.476Z,987.70
2018-03-04T00:14:46.075Z,987.73
2018-03-04T00:15:46.887Z,987.73
2018-03-04T00:16:47.481Z,987.76
2018-03-04T00:17:48.080Z,987.73
2018-03-04T00:18:48.662Z,987.71
2018-03-04T00:19:49.285Z,987.76
2018-03-04T00:20:49.856Z,987.78
2018-03-04T00:21:50.441Z,987.81
2018-03-04T00:22:51.037Z,987.80
2018-03-04T00:23:51.632Z,987.81
2018-03-04T00:24:52.225Z,987.83
2018-03-04T00:25:52.822Z,987.82
2018-03-04T00:26:53.407Z,987.84
2018-03-04T00:27:53.996Z,987.83
2018-03-04T00:28:54.581Z,987.83
2018-03-04T00:29:55.182Z,987.84
2018-03-04T00:30:55.769Z,987.78
2018-03-04T00:31:56.369Z,987.82
2018-03-04T00:32:56.971Z,987.79
2018-03-04T00:33:57.554Z,987.83
2018-03-04T00:34:58.142Z,987.84
2018-03-04T00:35:58.729Z,987.83
2018-03-04T00:36:59.314Z,987.82
2018-03-04T00:37:59.909Z,987.77
2018-03-04T00:39:00.511Z,987.78
2018-03-04T00:40:01.108Z,987.73
2018-03-04T00:41:01.706Z,987.77
2018-03-04T00:42:02.301Z,987.75
2018-03-04T00:43:02.901Z,987.71
2018-03-04T00:44:03.488Z,987.68
2018-03-04T00:45:04.078Z,987.70
2018-03-04T00:46:04.662Z,987.63
2018-03-04T00:47:05.260Z,987.65
2018-03-04T00:48:05.854Z,987.66
2018-03-04T00:49:06.444Z,987.62
2018-03-04T00:50:07.048Z,987.69
2018-03-04T00:51:07.636Z,987.72
2018-03-04T00:52:08.227Z,987.71
2018-03-04T00:53:08.814Z,987.70
2018-03-04T00:54:09.400Z,987.71
2018-03-04T00:55:10.001Z,987.72
2018-03-04T00:56:10.604Z,987.73
2018-03-04T00:57:11.201Z,987.71
2018-03-04T00:58:11.800Z,987.71
2018-03-04T00:59:12.401Z,987.72
2018-03-04T01:00:12.988Z,987.69
2018-03-04T01:01:13.628Z,987.74
2018-03-04T01:02:14.226Z,987.70
2018-03-04T01:03:14.827Z,987.67
2018-03-04T01:04:15.412Z,987.71
2018-03-04T01:05:16.006Z,987.68
2018-03-04T01:06:16.624Z,987.66
2018-03-04T01:07:17.208Z,987.66
2018-03-04T01:08:17.790Z,987.66
2018-03-04T01:09:18.381Z,987.65
2018-03-04T01:10:18.988Z,987.68
2018-03-04T01:11:19.577Z,987.65
2018-03-04T01:12:20.162Z,987.64
2018-03-04T01:13:20.761Z,987.63
2018-03-04T01:14:21.360Z,987.66
2018-03-04T01:15:21.977Z,987.66
2018-03-04T01:16:22.552Z,987.65
2018-03-04T01:17:23.145Z,987.60
2018-03-04T01:18:23.737Z,987.61
2018-03-04T01:19:24.339Z,987.64
2018-03-04T01:20:24.938Z,987.54
2018-03-04T01:21:25.535Z,987.56
2018-03-04T01:22:26.133Z,987.55
2018-03-04T01:23:26.712Z,987.50
2018-03-04T01:24:27.312Z,987.54
2018-03-04T01:25:27.904Z,987.56
2018-03-04T01:26:28.512Z,987.55
2018-03-04T01:27:29.104Z,987.53
2018-03-04T01:28:29.697Z,987.57
2018-03-04T01:29:30.278Z,987.55
2018-03-04T01:30:30.876Z,987.54
2018-03-04T01:31:31.474Z,987.57
2018-03-04T01:32:32.072Z,987.56
2018-03-04T01:33:32.675Z,987.55
2018-03-04T01:34:33.281Z,987.54
2018-03-04T01:35:33.873Z,987.49
2018-03-04T01:36:34.481Z,987.52
2018-03-04T01:37:35.054Z,987.47
2018-03-04T01:38:35.653Z,987.44
2018-03-04T01:39:36.249Z,987.47
2018-03-04T01:40:36.841Z,987.45
2018-03-04T01:41:37.441Z,987.46
2018-03-04T01:42:38.029Z,987.44
2018-03-04T01:43:38.649Z,987.46
2018-03-04T01:44:39.220Z,987.50
2018-03-04T01:45:39.843Z,987.47
2018-03-04T01:46:40.423Z,987.48
2018-03-04T01:47:41.014Z,987.48
2018-03-04T01:48:41.622Z,987.50
2018-03-04T01:49:42.206Z,987.44
2018-03-04T01:50:42.801Z,987.47
2018-03-04T01:51:43.392Z,987.46
2018-03-04T01:52:43.988Z,987.47
2018-03-04T01:53:44.573Z,987.47
2018-03-04T01:54:45.194Z,987.47
2018-03-04T01:55:45.779Z,987.45
2018-03-04T01:56:46.368Z,987.46
2018-03-04T01:57:46.966Z,987.45
2018-03-04T01:58:47.552Z,987.48
2018-03-04T01:59:48.152Z,987.49
2018-03-04T02:00:48.741Z,987.49
2018-03-04T02:01:49.332Z,987.48
2018-03-04T02:02:49.923Z,987.46
2018-03-04T02:03:50.520Z,987.47
2018-03-04T02:04:51.113Z,987.45
2018-03-04T02:05:51.715Z,987.45
2018-03-04T02:06:52.299Z,987.48
2018-03-04T02:07:52.885Z,987.48
2018-03-04T02:08:53.491Z,987.49
2018-03-04T02:09:54.072Z,987.55
2018-03-04T02:10:54.668Z,987.54
2018-03-04T02:11:55.266Z,987.50
2018-03-04T02:12:55.885Z,987.50
2018-03-04T02:13:56.467Z,987.51
2018-03-04T02:14:57.058Z,987.49
2018-03-04T02:15:57.658Z,987.44
2018-03-04T02:16:58.244Z,987.47
2018-03-04T02:17:58.840Z,987.44
2018-03-04T02:18:59.435Z,987.43
2018-03-04T02:20:00.019Z,987.42
2018-03-04T02:21:00.613Z,987.38
2018-03-04T02:22:01.208Z,987.41
2018-03-04T02:23:01.826Z,987.41
2018-03-04T02:24:02.400Z,987.34
2018-03-04T02:25:02.995Z,987.38
2018-03-04T02:26:03.605Z,987.33
2018-03-04T02:27:04.182Z,987.33
2018-03-04T02:28:04.764Z,987.33
2018-03-04T02:29:05.364Z,987.31
2018-03-04T02:30:05.971Z,987.30
2018-03-04T02:31:06.558Z,987.28
2018-03-04T02:32:07.162Z,987.28
2018-03-04T02:33:07.789Z,987.31
2018-03-04T02:34:08.337Z,987.26
2018-03-04T02:35:08.949Z,987.29
2018-03-04T02:36:09.550Z,987.22
2018-03-04T02:37:10.143Z,987.22
2018-03-04T02:38:10.730Z,987.24
2018-03-04T02:39:11.316Z,987.22
2018-03-04T02:40:11.907Z,987.26
2018-03-04T02:41:12.534Z,987.23
2018-03-04T02:42:13.091Z,987.21
2018-03-04T02:43:13.694Z,987.23
2018-03-04T02:44:14.302Z,987.15
2018-03-04T02:45:14.906Z,987.22
2018-03-04T02:46:15.492Z,987.14
2018-03-04T02:47:16.088Z,987.22
2018-03-04T02:48:16.688Z,987.20
2018-03-04T02:49:17.272Z,987.22
2018-03-04T02:50:17.862Z,987.24
2018-03-04T02:51:18.449Z,987.20
2018-03-04T02:52:19.063Z,987.18
2018-03-04T02:53:19.654Z,987.15
2018-03-04T02:54:20.250Z,987.15
2018-03-04T02:55:20.849Z,987.14
2018-03-04T02:56:21.448Z,987.15
2018-03-04T02:57:22.047Z,987.11
2018-03-04T02:58:22.644Z,987.09
2018-03-04T02:59:23.244Z,987.08
2018-03-04T03:00:23.835Z,987.08
2018-03-04T03:01:24.436Z,987.08
2018-03-04T03:02:25.035Z,987.14
2018-03-04T03:03:25.632Z,987.06
2018-03-04T03:04:26.229Z,987.09
2018-03-04T03:05:26.825Z,987.10
2018-03-04T03:06:27.435Z,987.05
2018-03-04T03:07:28.020Z,987.04
2018-03-04T03:08:28.613Z,987.08
2018-03-04T03:09:29.210Z,987.07
2018-03-04T03:10:29.792Z,987.08
2018-03-04T03:11:30.378Z,987.07
2018-03-04T03:12:30.976Z,987.07
2018-03-04T03:13:31.561Z,987.04
2018-03-04T03:14:32.149Z,986.99
2018-03-04T03:15:32.742Z,987.01
2018-03-04T03:16:33.340Z,986.99
2018-03-04T03:17:33.944Z,987.04
2018-03-04T03:18:34.546Z,987.05
2018-03-04T03:19:35.137Z,987.05
2018-03-04T03:20:35.735Z,987.00
2018-03-04T03:21:36.344Z,987.05
2018-03-04T03:22:36.942Z,987.02
2018-03-04T03:23:37.566Z,987.02
2018-03-04T03:24:38.145Z,987.03
2018-03-04T03:25:38.738Z,987.06
2018-03-04T03:26:39.344Z,987.05
2018-03-04T03:27:39.934Z,987.02
2018-03-04T03:28:40.525Z,987.02
2018-03-04T03:29:41.125Z,986.99
2018-03-04T03:30:41.715Z,986.98
2018-03-04T03:31:42.313Z,986.95
2018-03-04T03:32:42.904Z,986.92
2018-03-04T03:33:43.501Z,986.89
2018-03-04T03:34:44.090Z,986.86
2018-03-04T03:35:44.688Z,986.88
2018-03-04T03:36:45.292Z,986.89
2018-03-04T03:37:45.892Z,986.85
2018-03-04T03:38:46.480Z,986.83
2018-03-04T03:39:47.073Z,986.79
2018-03-04T03:40:47.694Z,986.81
2018-03-04T03:41:48.262Z,986.78
2018-03-04T03:42:48.855Z,986.82
2018-03-04T03:43:49.440Z,986.79
2018-03-04T03:44:50.028Z,986.81
2018-03-04T03:45:50.630Z,986.77
2018-03-04T03:46:51.234Z,986.78
2018-03-04T03:47:51.831Z,986.80
2018-03-04T03:48:52.421Z,986.83
2018-03-04T03:49:53.016Z,986.81
2018-03-04T03:50:53.618Z,986.83
2018-03-04T03:51:54.217Z,986.85
2018-03-04T03:52:54.792Z,986.88
2018-03-04T03:53:55.385Z,986.84
2018-03-04T03:54:55.971Z,986.90
2018-03-04T03:55:56.572Z,986.87
2018-03-04T03:56:57.199Z,986.84
2018-03-04T03:57:57.756Z,986.84
2018-03-04T03:58:58.357Z,986.83
2018-03-04T03:59:58.947Z,986.87
2018-03-04T04:00:59.537Z,986.88
2018-03-04T04:02:00.138Z,986.87
2018-03-04T04:03:00.724Z,986.91
2018-03-04T04:04:01.323Z,986.86
2018-03-04T04:05:01.914Z,986.85
2018-03-04T04:06:02.503Z,986.90
2018-03-04T04:07:03.102Z,986.96
2018-03-04T04:08:03.701Z,986.90
2018-03-04T04:09:04.287Z,986.91
2018-03-04T04:10:04.883Z,986.92
2018-03-04T04:11:05.486Z,986.92
2018-03-04T04:12:06.090Z,986.91
2018-03-04T04:13:06.680Z,986.92
2018-03-04T04:14:07.283Z,986.92
2018-03-04T04:15:07.890Z,986.95
2018-03-04T04:16:08.488Z,987.00
2018-03-04T04:17:09.084Z,986.99
2018-03-04T04:18:09.687Z,986.97
2018-03-04T04:19:10.267Z,986.95
2018-03-04T04:20:10.871Z,986.97
2018-03-04T04:21:11.466Z,986.97
2018-03-04T04:22:12.075Z,986.93
2018-03-04T04:23:12.663Z,986.90
2018-03-04T04:24:13.249Z,986.93
2018-03-04T04:25:13.834Z,986.93
2018-03-04T04:26:14.425Z,986.90
2018-03-04T04:27:15.007Z,986.87
2018-03-04T04:28:15.607Z,986.86
2018-03-04T04:29:16.208Z,986.87
2018-03-04T04:30:16.826Z,986.86
2018-03-04T04:31:17.414Z,986.83
2018-03-04T04:32:18.006Z,986.85
2018-03-04T04:33:18.598Z,986.83
2018-03-04T04:34:19.191Z,986.83
2018-03-04T04:35:19.798Z,986.82
2018-03-04T04:36:20.386Z,986.86
2018-03-04T04:37:20.978Z,986.83
2018-03-04T04:38:21.577Z,986.83
2018-03-04T04:39:22.170Z,986.81
2018-03-04T04:40:22.780Z,986.78
2018-03-04T04:41:23.365Z,986.83
2018-03-04T04:42:23.962Z,986.76
2018-03-04T04:43:24.558Z,986.78
2018-03-04T04:44:25.206Z,986.75
2018-03-04T04:45:25.729Z,986.77
2018-03-04T04:46:26.326Z,986.73
2018-03-04T04:47:26.919Z,986.69
2018-03-04T04:48:27.506Z,986.71
2018-03-04T04:49:28.099Z,986.72
2018-03-04T04:50:28.692Z,986.71
2018-03-04T04:51:29.295Z,986.75
2018-03-04T04:52:29.884Z,986.74
2018-03-04T04:53:30.472Z,986.71
2018-03-04T04:54:31.064Z,986.71
2018-03-04T04:55:31.676Z,986.71
2018-03-04T04:56:32.246Z,986.72
2018-03-04T04:57:32.842Z,986.69
2018-03-04T04:58:33.439Z,986.68
2018-03-04T04:59:34.023Z,986.72
2018-03-04T05:00:34.605Z,986.70
2018-03-04T05:01:35.199Z,986.73
2018-03-04T05:02:35.797Z,986.72
2018-03-04T05:03:36.388Z,986.73
2018-03-04T05:04:36.972Z,986.75
2018-03-04T05:05:37.585Z,986.79
2018-03-04T05:06:38.160Z,986.82
2018-03-04T05:07:38.767Z,986.79
2018-03-04T05:08:39.359Z,986.79
2018-03-04T05:09:39.948Z,986.83
2018-03-04T05:10:40.532Z,986.79
2018-03-04T05:11:41.125Z,986.85
2018-03-04T05:12:41.725Z,986.84
2018-03-04T05:13:42.323Z,986.85
2018-03-04T05:14:42.914Z,986.89
2018-03-04T05:15:43.508Z,986.89
2018-03-04T05:16:44.115Z,986.91
2018-03-04T05:17:44.695Z,986.89
2018-03-04T05:18:45.294Z,986.88
2018-03-04T05:19:45.885Z,986.94
2018-03-04T05:20:46.475Z,986.96
2018-03-04T05:21:47.075Z,986.96
2018-03-04T05:22:47.652Z,987.02
2018-03-04T05:23:48.250Z,986.96
2018-03-04T05:24:48.858Z,986.99
2018-03-04T05:25:49.437Z,986.97
2018-03-04T05:26:50.028Z,986.98
2018-03-04T05:27:50.617Z,986.97
2018-03-04T05:28:51.221Z,986.97
2018-03-04T05:29:51.844Z,987.00
2018-03-04T05:30:52.423Z,986.95
2018-03-04T05:31:53.035Z,986.96
2018-03-04T05:32:53.631Z,986.93
2018-03-04T05:33:54.228Z,986.91
2018-03-04T05:34:54.827Z,986.86
2018-03-04T05:35:55.416Z,986.82
2018-03-04T05:36:56.013Z,986.87
2018-03-04T05:37:56.602Z,986.87
2018-03-04T05:38:57.198Z,986.89
2018-03-04T05:39:57.792Z,986.81
2018-03-04T05:40:58.396Z,986.86
2018-03-04T05:41:58.999Z,986.87
2018-03-04T05:42:59.592Z,986.87
2018-03-04T05:44:00.178Z,986.84
2018-03-04T05:45:00.768Z,986.83
2018-03-04T05:46:01.366Z,986.81
2018-03-04T05:47:01.963Z,986.83
2018-03-04T05:48:02.557Z,986.77
2018-03-04T05:49:03.152Z,986.79
2018-03-04T05:50:03.742Z,986.81
2018-03-04T05:51:04.335Z,986.82
2018-03-04T05:52:04.929Z,986.82
2018-03-04T05:53:05.521Z,986.80
2018-03-04T05:54:06.112Z,986.81
2018-03-04T05:55:06.705Z,986.88
2018-03-04T05:56:07.283Z,986.88
2018-03-04T05:57:07.879Z,986.88
2018-03-04T05:58:08.482Z,986.85
2018-03-04T05:59:09.075Z,986.86
2018-03-04T06:00:09.667Z,986.85
2018-03-04T06:01:10.256Z,986.86
2018-03-04T06:02:10.861Z,986.84
2018-03-04T06:03:11.453Z,986.87
2018-03-04T06:04:12.059Z,986.93
2018-03-04T06:05:12.653Z,986.87
2018-03-04T06:06:13.239Z,986.90
2018-03-04T06:07:13.829Z,986.89
2018-03-04T06:08:14.433Z,986.94
2018-03-04T06:09:15.040Z,986.92
2018-03-04T06:10:15.635Z,986.92
2018-03-04T06:11:16.237Z,986.92
2018-03-04T06:12:16.866Z,986.92
2018-03-04T06:13:17.418Z,986.91
2018-03-04T06:14:18.015Z,986.92
2018-03-04T06:15:18.630Z,986.94
2018-03-04T06:16:19.212Z,986.97
2018-03-04T06:17:19.814Z,986.98
2018-03-04T06:18:20.418Z,987.03
2018-03-04T06:19:21.016Z,987.04
2018-03-04T06:20:21.614Z,987.03
2018-03-04T06:21:22.213Z,987.07
2018-03-04T06:22:22.818Z,987.10
2018-03-04T06:23:23.405Z,987.04
2018-03-04T06:24:24.012Z,987.07
2018-03-04T06:25:24.617Z,987.08
2018-03-04T06:26:25.235Z,987.04
2018-03-04T06:27:25.817Z,987.06
2018-03-04T06:28:26.423Z,987.10
2018-03-04T06:29:27.027Z,987.09
2018-03-04T06:30:27.611Z,987.03
2018-03-04T06:31:28.214Z,987.04
2018-03-04T06:32:28.817Z,987.02
2018-03-04T06:33:29.468Z,987.02
2018-03-04T06:34:30.029Z,986.97
2018-03-04T06:35:30.600Z,987.01
2018-03-04T06:36:31.207Z,986.95
2018-03-04T06:37:31.813Z,986.98
2018-03-04T06:38:32.412Z,986.95
2018-03-04T06:39:33.019Z,986.89
2018-03-04T06:40:33.617Z,986.88
2018-03-04T06:41:34.206Z,986.91
2018-03-04T06:42:34.809Z,986.95
2018-03-04T06:43:35.449Z,986.93
2018-03-04T06:44:36.004Z,986.91
2018-03-04T06:45:36.627Z,986.96
2018-03-04T06:46:37.196Z,986.97
2018-03-04T06:47:37.796Z,986.95
2018-03-04T06:48:38.382Z,986.92
2018-03-04T06:49:38.989Z,986.88
2018-03-04T06:50:39.582Z,986.91
2018-03-04T06:51:40.188Z,986.91
2018-03-04T06:52:40.790Z,986.93
2018-03-04T06:53:41.401Z,986.96
2018-03-04T06:54:41.980Z,986.86
2018-03-04T06:55:42.590Z,986.91
2018-03-04T06:56:43.190Z,986.83
2018-03-04T06:57:43.781Z,986.87
2018-03-04T06:58:44.390Z,986.88
2018-03-04T06:59:44.989Z,986.87
2018-03-04T07:00:45.610Z,986.87
2018-03-04T07:01:46.195Z,986.90
2018-03-04T07:02:46.791Z,986.89
2018-03-04T07:03:47.392Z,986.80
2018-03-04T07:04:47.996Z,986.81
2018-03-04T07:05:48.607Z,986.82
2018-03-04T07:06:49.209Z,986.79
2018-03-04T07:07:49.810Z,986.84
2018-03-04T07:08:50.405Z,986.80
2018-03-04T07:09:51.025Z,986.82
2018-03-04T07:10:51.603Z,986.77
2018-03-04T07:11:52.200Z,986.79
2018-03-04T07:12:52.814Z,986.83
2018-03-04T07:13:53.421Z,986.92
2018-03-04T07:14:54.028Z,986.96
2018-03-04T07:15:54.618Z,987.02
2018-03-04T07:16:55.266Z,986.99
2018-03-04T07:17:55.839Z,987.01
2018-03-04T07:18:56.429Z,987.00
2018-03-04T07:19:57.029Z,987.01
2018-03-04T07:20:57.624Z,987.00
2018-03-04T07:21:58.231Z,987.00
2018-03-04T07:22:58.836Z,987.00
2018-03-04T07:23:59.438Z,987.03
2018-03-04T07:25:00.048Z,987.05
2018-03-04T07:26:00.647Z,987.07
2018-03-04T07:27:01.250Z,987.08
2018-03-04T07:28:01.855Z,987.12
2018-03-04T07:29:02.467Z,987.10
2018-03-04T07:30:03.066Z,987.15
2018-03-04T07:31:03.671Z,987.13
2018-03-04T07:32:04.276Z,987.15
2018-03-04T07:33:04.876Z,987.17
2018-03-04T07:34:05.481Z,987.21
2018-03-04T07:35:06.133Z,987.22
2018-03-04T07:36:06.684Z,987.27
2018-03-04T07:37:07.282Z,987.24
2018-03-04T07:38:07.894Z,987.27
2018-03-04T07:39:08.500Z,987.27
2018-03-04T07:40:09.098Z,987.22
2018-03-04T07:41:09.704Z,987.25
2018-03-04T07:42:10.308Z,987.21
2018-03-04T07:43:10.907Z,987.15
2018-03-04T07:44:11.512Z,987.19
2018-03-04T07:45:12.105Z,987.22
2018-03-04T07:46:12.701Z,987.24
2018-03-04T07:47:13.307Z,987.18
2018-03-04T07:48:13.908Z,987.20
2018-03-04T07:49:14.512Z,987.21
2018-03-04T07:50:15.121Z,987.21
2018-03-04T07:51:15.718Z,987.19
2018-03-04T07:52:16.331Z,987.15
2018-03-04T07:53:16.939Z,987.16
2018-03-04T07:54:17.556Z,987.08
2018-03-04T07:55:18.168Z,987.08
2018-03-04T07:56:18.778Z,987.01
2018-03-04T07:57:19.376Z,987.01
2018-03-04T07:58:19.998Z,987.02
2018-03-04T07:59:20.593Z,987.02
2018-03-04T08:00:21.221Z,987.04
2018-03-04T08:01:21.838Z,987.03
2018-03-04T08:02:22.427Z,987.05
2018-03-04T08:03:23.030Z,987.02
2018-03-04T08:04:23.627Z,987.08
2018-03-04T08:05:24.235Z,987.04
2018-03-04T08:06:24.836Z,987.08
2018-03-04T08:07:25.437Z,987.08
2018-03-04T08:08:26.033Z,987.07
2018-03-04T08:09:26.643Z,987.01
2018-03-04T08:10:27.250Z,987.02
2018-03-04T08:11:27.888Z,987.03
2018-03-04T08:12:28.473Z,987.04
2018-03-04T08:13:29.082Z,987.01
2018-03-04T08:14:29.689Z,987.00
2018-03-04T08:15:30.291Z,987.01
2018-03-04T08:16:30.898Z,987.00
2018-03-04T08:17:31.506Z,987.03
2018-03-04T08:18:32.165Z,987.02
2018-03-04T08:19:32.711Z,987.03
2018-03-04T08:20:33.318Z,987.03
2018-03-04T08:21:33.926Z,987.00
2018-03-04T08:22:34.533Z,987.02
2018-03-04T08:23:35.145Z,987.00
2018-03-04T08:24:35.750Z,986.96
2018-03-04T08:25:36.361Z,987.00
2018-03-04T08:26:37.017Z,987.04
2018-03-04T08:27:37.582Z,987.04
2018-03-04T08:28:38.207Z,987.08
2018-03-04T08:29:38.800Z,987.10
2018-03-04T08:30:39.413Z,987.08
2018-03-04T08:31:40.034Z,987.01
2018-03-04T08:32:40.638Z,987.08
2018-03-04T08:33:41.246Z,987.02
2018-03-04T08:34:41.853Z,987.08
2018-03-04T08:35:42.452Z,987.08
2018-03-04T08:36:43.065Z,987.07
2018-03-04T08:37:43.689Z,986.99
2018-03-04T08:38:44.289Z,987.01
2018-03-04T08:39:44.902Z,986.99
2018-03-04T08:40:45.494Z,986.98
2018-03-04T08:41:46.099Z,987.05
2018-03-04T08:42:46.709Z,987.01
2018-03-04T08:43:47.416Z,986.92
2018-03-04T08:44:48.023Z,987.02
2018-03-04T08:45:48.603Z,986.95
2018-03-04T08:46:49.248Z,986.97
2018-03-04T08:47:49.846Z,987.02
2018-03-04T08:48:50.463Z,987.01
2018-03-04T08:49:51.045Z,987.00
2018-03-04T08:50:51.644Z,987.00
2018-03-04T08:51:52.257Z,987.00
2018-03-04T08:52:52.866Z,986.99
2018-03-04T08:53:53.477Z,986.96
2018-03-04T08:54:54.087Z,987.00
2018-03-04T08:55:54.684Z,986.96
2018-03-04T08:56:55.282Z,987.02
2018-03-04T08:57:55.893Z,986.97
2018-03-04T08:58:56.496Z,987.01
2018-03-04T08:59:57.110Z,986.94
2018-03-04T09:00:57.722Z,986.99
2018-03-04T09:01:58.324Z,986.93
2018-03-04T09:02:58.933Z,986.97
2018-03-04T09:03:59.553Z,987.00
2018-03-04T09:05:00.167Z,987.06
2018-03-04T09:06:00.787Z,986.95
2018-03-04T09:07:01.403Z,987.03
2018-03-04T09:08:02.016Z,987.04
2018-03-04T09:09:02.620Z,987.12
2018-03-04T09:10:03.218Z,987.08
2018-03-04T09:11:03.826Z,987.06
2018-03-04T09:12:04.451Z,987.00
2018-03-04T09:13:05.047Z,986.98
2018-03-04T09:14:05.661Z,986.93
2018-03-04T09:15:06.285Z,986.89
2018-03-04T09:16:06.872Z,986.82
2018-03-04T09:17:07.481Z,986.88
2018-03-04T09:18:08.094Z,986.88
2018-03-04T09:19:08.695Z,986.86
2018-03-04T09:20:09.343Z,986.91
2018-03-04T09:21:09.916Z,986.88
2018-03-04T09:22:10.535Z,986.87
2018-03-04T09:23:11.164Z,986.87
2018-03-04T09:24:11.773Z,986.93
2018-03-04T09:25:12.371Z,986.90
2018-03-04T09:26:12.986Z,986.89
2018-03-04T09:27:13.598Z,986.85
2018-03-04T09:28:14.202Z,986.82
2018-03-04T09:29:14.826Z,986.81
2018-03-04T09:30:15.444Z,986.82
2018-03-04T09:31:16.060Z,986.82
2018-03-04T09:32:16.653Z,986.83
2018-03-04T09:33:17.279Z,986.84
2018-03-04T09:34:17.871Z,986.84
2018-03-04T09:35:18.470Z,986.89
2018-03-04T09:36:19.092Z,986.83
2018-03-04T09:37:19.706Z,986.92
2018-03-04T09:38:20.308Z,986.89
2018-03-04T09:39:20.946Z,986.85
2018-03-04T09:40:21.535Z,986.88
2018-03-04T09:41:22.149Z,986.86
2018-03-04T09:42:22.762Z,986.79
2018-03-04T09:43:23.374Z,986.79
2018-03-04T09:44:23.988Z,986.88
2018-03-04T09:45:24.606Z,986.88
2018-03-04T09:46:25.210Z,986.83
2018-03-04T09:47:25.853Z,986.83
2018-03-04T09:48:26.428Z,986.83
2018-03-04T09:49:27.043Z,986.82
2018-03-04T09:50:27.649Z,986.83
2018-03-04T09:51:28.262Z,986.83
2018-03-04T09:52:28.872Z,986.79
2018-03-04T09:53:29.476Z,986.80
2018-03-04T09:54:30.078Z,986.80
2018-03-04T09:55:30.699Z,986.81
2018-03-04T09:56:31.296Z,986.79
2018-03-04T09:57:31.928Z,986.78
2018-03-04T09:58:32.527Z,986.84
2018-03-04T09:59:33.153Z,986.82
2018-03-04T10:00:33.762Z,986.84
2018-03-04T10:01:34.366Z,986.78
2018-03-04T10:02:34.978Z,986.86
2018-03-04T10:03:35.595Z,986.78
2018-03-04T10:04:36.212Z,986.78
2018-03-04T10:05:36.845Z,986.79
2018-03-04T10:06:37.439Z,986.82
2018-03-04T10:07:38.062Z,986.71
2018-03-04T10:08:38.667Z,986.69
2018-03-04T10:09:39.281Z,986.70
2018-03-04T10:10:39.883Z,986.67
2018-03-04T10:11:40.515Z,986.77
2018-03-04T10:12:41.108Z,986.71
2018-03-04T10:13:41.711Z,986.68
2018-03-04T10:14:42.322Z,986.61
2018-03-04T10:15:42.926Z,986.59
2018-03-04T10:16:43.533Z,986.57
2018-03-04T10:17:44.153Z,986.55
2018-03-04T10:18:44.759Z,986.57
2018-03-04T10:19:45.368Z,986.54
2018-03-04T10:20:45.991Z,986.51
2018-03-04T10:21:46.581Z,986.51
2018-03-04T10:22:47.198Z,986.46
2018-03-04T10:23:47.806Z,986.47
2018-03-04T10:24:48.418Z,986.47
2018-03-04T10:25:49.036Z,986.42
2018-03-04T10:26:49.655Z,986.46
2018-03-04T10:27:50.256Z,986.52
2018-03-04T10:28:50.866Z,986.54
2018-03-04T10:29:51.487Z,986.50
2018-03-04T10:30:52.109Z,986.51
2018-03-04T10:31:52.720Z,986.52
2018-03-04T10:32:53.348Z,986.47
2018-03-04T10:33:53.948Z,986.50
2018-03-04T10:34:54.571Z,986.49
2018-03-04T10:35:55.181Z,986.52
2018-03-04T10:36:55.792Z,986.49
2018-03-04T10:37:56.408Z,986.52
2018-03-04T10:38:57.023Z,986.48
2018-03-04T10:39:57.638Z,986.51
2018-03-04T10:40:58.248Z,986.50
2018-03-04T10:41:58.855Z,986.45
2018-03-04T10:42:59.472Z,986.43
2018-03-04T10:44:00.093Z,986.37
2018-03-04T10:45:00.701Z,986.38
2018-03-04T10:46:01.312Z,986.38
2018-03-04T10:47:01.933Z,986.38
2018-03-04T10:48:02.530Z,986.32
2018-03-04T10:49:03.148Z,986.29
2018-03-04T10:50:03.760Z,986.36
2018-03-04T10:51:04.369Z,986.34
2018-03-04T10:52:04.992Z,986.41
2018-03-04T10:53:05.600Z,986.36
2018-03-04T10:54:06.229Z,986.37
2018-03-04T10:55:06.862Z,986.40
2018-03-04T10:56:07.461Z,986.41
2018-03-04T10:57:08.073Z,986.40
2018-03-04T10:58:08.677Z,986.43
2018-03-04T10:59:09.296Z,986.44
2018-03-04T11:00:09.906Z,986.42
2018-03-04T11:01:10.524Z,986.42
2018-03-04T11:02:11.170Z,986.42
2018-03-04T11:03:11.754Z,986.44
2018-03-04T11:04:12.363Z,986.42
2018-03-04T11:05:12.984Z,986.42
2018-03-04T11:06:13.593Z,986.35
2018-03-04T11:07:14.213Z,986.44
2018-03-04T11:08:14.831Z,986.47
2018-03-04T11:09:15.459Z,986.54
2018-03-04T11:10:16.083Z,986.41
2018-03-04T11:11:16.669Z,986.48
2018-03-04T11:12:17.286Z,986.54
2018-03-04T11:13:17.891Z,986.47
2018-03-04T11:14:18.497Z,986.51
2018-03-04T11:15:19.171Z,986.48
2018-03-04T11:16:19.712Z,986.49
2018-03-04T11:17:20.320Z,986.45
2018-03-04T11:18:20.932Z,986.43
2018-03-04T11:19:21.533Z,986.36
2018-03-04T11:20:22.141Z,986.36
2018-03-04T11:21:22.757Z,986.39
2018-03-04T11:22:23.361Z,986.37
2018-03-04T11:23:23.997Z,986.34
2018-03-04T11:24:24.594Z,986.28
2018-03-04T11:25:25.202Z,986.34
2018-03-04T11:26:25.812Z,986.33
2018-03-04T11:27:26.421Z,986.21
2018-03-04T11:28:27.035Z,986.26
2018-03-04T11:29:27.656Z,986.23
2018-03-04T11:30:28.268Z,986.16
2018-03-04T11:31:28.888Z,986.22
2018-03-04T11:32:29.496Z,986.22
2018-03-04T11:33:30.112Z,986.17
2018-03-04T11:34:30.730Z,986.10
2018-03-04T11:35:31.341Z,986.14
2018-03-04T11:36:31.971Z,986.10
2018-03-04T11:37:32.576Z,986.05
2018-03-04T11:38:33.207Z,986.07
2018-03-04T11:39:33.825Z,986.04
2018-03-04T11:40:34.421Z,986.00
2018-03-04T11:41:35.042Z,985.98
2018-03-04T11:42:35.658Z,985.94
2018-03-04T11:43:36.276Z,985.99
2018-03-04T11:44:36.902Z,985.94
2018-03-04T11:45:37.516Z,985.96
2018-03-04T11:46:38.134Z,985.85
2018-03-04T11:47:38.754Z,985.89
2018-03-04T11:48:39.358Z,985.86
2018-03-04T11:49:40.025Z,985.88
2018-03-04T11:50:40.615Z,985.85
2018-03-04T11:51:41.205Z,985.89
2018-03-04T11:52:41.812Z,985.83
2018-03-04T11:53:42.433Z,985.78
2018-03-04T11:54:43.064Z,985.82
2018-03-04T11:55:43.656Z,985.81
2018-03-04T11:56:44.271Z,985.74
2018-03-04T11:57:44.930Z,985.76
2018-03-04T11:58:45.494Z,985.75
2018-03-04T11:59:46.095Z,985.77
2018-03-04T12:00:46.703Z,985.68
2018-03-04T12:01:47.324Z,985.64
2018-03-04T12:02:47.930Z,985.66
2018-03-04T12:03:48.556Z,985.66
2018-03-04T12:04:49.158Z,985.70
2018-03-04T12:05:49.769Z,985.67
2018-03-04T12:06:50.409Z,985.68
2018-03-04T12:07:50.997Z,985.70
2018-03-04T12:08:51.610Z,985.63
2018-03-04T12:09:52.226Z,985.69
2018-03-04T12:10:52.843Z,985.65
2018-03-04T12:11:53.445Z,985.56
2018-03-04T12:12:54.051Z,985.57
2018-03-04T12:13:54.676Z,985.49
2018-03-04T12:14:55.275Z,985.54
2018-03-04T12:15:55.882Z,985.46
2018-03-04T12:16:56.507Z,985.46
2018-03-04T12:17:57.125Z,985.48
2018-03-04T12:18:57.743Z,985.43
2018-03-04T12:19:58.361Z,985.43
2018-03-04T12:20:58.981Z,985.45
2018-03-04T12:21:59.598Z,985.43
2018-03-04T12:23:00.217Z,985.47
2018-03-04T12:24:00.898Z,985.41
2018-03-04T12:25:01.453Z,985.37
2018-03-04T12:26:02.073Z,985.38
2018-03-04T12:27:02.712Z,985.45
2018-03-04T12:28:03.329Z,985.37
2018-03-04T12:29:03.944Z,985.35
2018-03-04T12:30:04.562Z,985.36
2018-03-04T12:31:05.178Z,985.31
2018-03-04T12:32:05.797Z,985.37
2018-03-04T12:33:06.415Z,985.29
2018-03-04T12:34:07.036Z,985.31
2018-03-04T12:35:07.655Z,985.29
2018-03-04T12:36:08.271Z,985.30